createdAt,value
2017-01-16T00:01:08.501Z,0
2017-01-16T00:02:23.895Z,0
2017-01-16T00:03:37.993Z,0
2017-01-16T00:04:51.606Z,0
2017-01-16T00:06:05.202Z,0
2017-01-16T00:07:18.920Z,0
2017-01-16T00:08:32.845Z,0
2017-01-16T00:09:46.469Z,0
2017-01-16T00:11:00.104Z,0
2017-01-16T00:12:13.738Z,0
2017-01-16T00:13:27.556Z,0
2017-01-16T00:14:43.292Z,0
2017-01-16T00:15:56.932Z,0
2017-01-16T00:17:10.491Z,0
2017-01-16T00:18:24.221Z,0
2017-01-16T00:19:37.799Z,0
2017-01-16T00:20:52.142Z,0
2017-01-16T00:22:06.592Z,0
2017-01-16T00:23:21.911Z,0
2017-01-16T00:24:35.502Z,0
2017-01-16T00:25:49.240Z,0
2017-01-16T00:27:03.540Z,0
2017-01-16T00:28:17.248Z,0
2017-01-16T00:29:31.001Z,0
2017-01-16T00:30:44.649Z,0
2017-01-16T00:31:58.610Z,0
2017-01-16T00:33:13.226Z,0
2017-01-16T00:34:27.196Z,0
2017-01-16T00:35:40.815Z,0
2017-01-16T00:36:54.855Z,0
2017-01-16T00:38:09.032Z,0
2017-01-16T00:39:23.045Z,0
2017-01-16T00:40:37.026Z,0
2017-01-16T00:41:51.412Z,0
2017-01-16T00:43:05.587Z,0
2017-01-16T00:44:19.301Z,0
2017-01-16T00:45:33.184Z,0
2017-01-16T00:46:47.484Z,0
2017-01-16T00:48:01.204Z,0
2017-01-16T00:49:14.884Z,0
2017-01-16T00:50:28.568Z,0
2017-01-16T00:51:42.468Z,0
2017-01-16T00:52:56.369Z,0
2017-01-16T00:54:10.094Z,0
2017-01-16T00:55:24.061Z,0
2017-01-16T00:56:37.822Z,0
2017-01-16T00:57:51.842Z,0
2017-01-16T00:59:06.032Z,0
2017-01-16T01:00:19.921Z,0
2017-01-16T01:01:33.573Z,0
2017-01-16T01:02:47.150Z,0
2017-01-16T01:04:03.249Z,0
2017-01-16T01:05:17.154Z,0
2017-01-16T01:06:30.784Z,0
2017-01-16T01:07:44.793Z,0
2017-01-16T01:08:58.467Z,0
2017-01-16T01:10:13.009Z,0
2017-01-16T01:11:26.853Z,0
2017-01-16T01:12:40.875Z,0
2017-01-16T01:13:54.469Z,0
2017-01-16T01:15:08.084Z,0
2017-01-16T01:16:22.104Z,0
2017-01-16T01:17:36.258Z,0
2017-01-16T01:18:50.320Z,0
2017-01-16T01:20:03.986Z,0
2017-01-16T01:21:18.979Z,0
2017-01-16T01:22:32.925Z,0
2017-01-16T01:23:46.622Z,0
2017-01-16T01:25:00.268Z,0
2017-01-16T01:26:13.995Z,0
2017-01-16T01:27:27.747Z,0
2017-01-16T01:28:41.504Z,0
2017-01-16T01:29:55.331Z,0
2017-01-16T01:31:08.925Z,0
2017-01-16T01:32:23.861Z,0
2017-01-16T01:33:37.481Z,0
2017-01-16T01:34:51.415Z,0
2017-01-16T01:36:05.444Z,0
2017-01-16T01:37:19.130Z,0
2017-01-16T01:38:32.784Z,0
2017-01-16T01:39:46.388Z,0
2017-01-16T01:41:00.339Z,0
2017-01-16T01:42:14.075Z,0
2017-01-16T01:43:27.682Z,0
2017-01-16T01:44:41.280Z,0
2017-01-16T01:45:54.916Z,0
2017-01-16T01:47:08.820Z,0
2017-01-16T01:48:22.996Z,0
2017-01-16T01:49:36.663Z,0
2017-01-16T01:50:50.303Z,0
2017-01-16T01:52:03.878Z,0
2017-01-16T01:53:17.979Z,0
2017-01-16T01:54:31.609Z,0
2017-01-16T01:55:45.229Z,0
2017-01-16T01:56:58.853Z,0
2017-01-16T01:58:13.856Z,0
2017-01-16T01:59:27.860Z,0
2017-01-16T02:00:41.542Z,0
2017-01-16T02:01:55.157Z,0
2017-01-16T02:03:09.867Z,0
2017-01-16T02:04:23.514Z,0
2017-01-16T02:05:37.398Z,0
2017-01-16T02:06:50.938Z,0
2017-01-16T02:08:04.556Z,0
2017-01-16T02:12:33.067Z,0
2017-01-16T02:13:46.804Z,0
2017-01-16T02:15:00.397Z,0
2017-01-16T02:16:13.972Z,0
2017-01-16T02:17:27.627Z,0
2017-01-16T02:18:41.755Z,0
2017-01-16T02:19:55.518Z,0
2017-01-16T02:21:11.353Z,0
2017-01-16T02:22:30.392Z,0
2017-01-16T02:23:43.991Z,0
2017-01-16T02:24:57.904Z,0
2017-01-16T02:26:12.533Z,0
2017-01-16T02:27:28.861Z,0
2017-01-16T02:28:45.986Z,0
2017-01-16T02:30:02.594Z,0
2017-01-16T02:31:17.158Z,0
2017-01-16T02:32:30.799Z,0
2017-01-16T02:33:44.776Z,0
2017-01-16T02:34:58.336Z,0
2017-01-16T02:36:11.907Z,0
2017-01-16T02:37:25.846Z,0
2017-01-16T02:38:39.474Z,0
2017-01-16T02:39:53.054Z,0
2017-01-16T02:41:06.606Z,0
2017-01-16T02:42:20.195Z,0
2017-01-16T02:43:34.399Z,0
2017-01-16T02:44:48.068Z,0
2017-01-16T02:46:01.591Z,0
2017-01-16T02:47:15.202Z,0
2017-01-16T02:48:28.908Z,0
2017-01-16T02:49:42.977Z,0
2017-01-16T02:50:56.955Z,0
2017-01-16T02:52:10.758Z,0
2017-01-16T02:53:24.999Z,0
2017-01-16T02:54:38.558Z,0
2017-01-16T02:55:52.434Z,0
2017-01-16T02:57:05.989Z,0
2017-01-16T02:58:19.563Z,0
2017-01-16T02:59:33.210Z,0
2017-01-16T03:00:47.182Z,0
2017-01-16T03:02:01.059Z,0
2017-01-16T03:03:14.625Z,0
2017-01-16T03:04:28.740Z,0
2017-01-16T03:05:42.719Z,0
2017-01-16T03:06:56.275Z,0
2017-01-16T03:08:10.268Z,0
2017-01-16T03:09:23.859Z,0
2017-01-16T03:10:38.571Z,0
2017-01-16T03:11:52.035Z,0
2017-01-16T03:13:05.480Z,0
2017-01-16T03:14:19.342Z,0
2017-01-16T03:15:32.846Z,0
2017-01-16T03:16:46.270Z,0
2017-01-16T03:17:59.722Z,0
2017-01-16T03:19:13.135Z,0
2017-01-16T03:20:27.372Z,0
2017-01-16T03:21:40.819Z,0
2017-01-16T03:22:54.271Z,0
2017-01-16T03:24:07.734Z,0
2017-01-16T03:25:21.258Z,0
2017-01-16T03:26:35.276Z,0
2017-01-16T03:27:48.717Z,0
2017-01-16T03:29:02.189Z,0
2017-01-16T03:30:15.587Z,0
2017-01-16T03:31:29.383Z,0
2017-01-16T03:32:43.109Z,0
2017-01-16T03:33:56.539Z,0
2017-01-16T03:35:10.366Z,0
2017-01-16T03:36:24.303Z,0
2017-01-16T03:37:37.741Z,0
2017-01-16T03:38:53.593Z,0
2017-01-16T03:40:07.015Z,0
2017-01-16T03:41:20.983Z,0
2017-01-16T03:42:34.410Z,0
2017-01-16T03:43:47.866Z,0
2017-01-16T03:45:01.582Z,0
2017-01-16T03:46:15.023Z,0
2017-01-16T03:47:29.701Z,0
2017-01-16T03:48:43.144Z,0
2017-01-16T03:49:56.956Z,0
2017-01-16T03:51:10.701Z,0
2017-01-16T03:52:24.245Z,0
2017-01-16T03:53:37.896Z,0
2017-01-16T03:54:51.336Z,0
2017-01-16T03:56:04.759Z,0
2017-01-16T03:57:18.545Z,0
2017-01-16T03:58:33.443Z,0
2017-01-16T03:59:47.000Z,0
2017-01-16T04:01:01.013Z,0
2017-01-16T04:02:14.479Z,0
2017-01-16T04:03:28.319Z,0
2017-01-16T04:04:41.759Z,0
2017-01-16T04:05:55.206Z,0
2017-01-16T04:07:09.065Z,0
2017-01-16T04:08:22.646Z,0
2017-01-16T04:09:36.360Z,0
2017-01-16T04:10:49.769Z,0
2017-01-16T04:12:03.238Z,0
2017-01-16T04:13:17.084Z,0
2017-01-16T04:14:30.618Z,0
2017-01-16T04:15:44.344Z,0
2017-01-16T04:16:57.766Z,0
2017-01-16T04:18:11.184Z,0
2017-01-16T04:19:24.699Z,0
2017-01-16T04:20:38.343Z,0
2017-01-16T04:21:52.034Z,0
2017-01-16T04:23:07.509Z,0
2017-01-16T04:24:22.410Z,0
2017-01-16T04:25:35.855Z,0
2017-01-16T04:26:49.303Z,0
2017-01-16T04:28:03.030Z,0
2017-01-16T04:29:17.740Z,0
2017-01-16T04:30:31.267Z,0
2017-01-16T04:31:44.691Z,0
2017-01-16T04:32:58.197Z,0
2017-01-16T04:34:11.895Z,0
2017-01-16T04:35:25.671Z,0
2017-01-16T04:36:39.103Z,0
2017-01-16T04:37:52.575Z,0
2017-01-16T04:39:06.183Z,0
2017-01-16T04:40:20.093Z,0
2017-01-16T04:41:33.495Z,0
2017-01-16T04:42:47.001Z,0
2017-01-16T04:44:00.466Z,0
2017-01-16T04:45:13.868Z,0
2017-01-16T04:46:42.497Z,0
2017-01-16T04:47:55.951Z,0
2017-01-16T04:49:09.385Z,0
2017-01-16T04:50:22.804Z,0
2017-01-16T04:51:36.381Z,0
2017-01-16T04:52:50.079Z,0
2017-01-16T04:54:03.599Z,0
2017-01-16T04:55:19.243Z,0
2017-01-16T04:56:33.245Z,0
2017-01-16T04:57:46.661Z,0
2017-01-16T04:59:00.842Z,0
2017-01-16T05:00:14.317Z,0
2017-01-16T05:01:27.760Z,0
2017-01-16T05:02:41.300Z,0
2017-01-16T05:03:55.195Z,0
2017-01-16T05:05:08.908Z,0
2017-01-16T05:06:22.374Z,0
2017-01-16T05:07:35.896Z,0
2017-01-16T05:08:49.347Z,0
2017-01-16T05:10:02.941Z,0
2017-01-16T05:11:16.667Z,0
2017-01-16T05:12:30.101Z,0
2017-01-16T05:13:43.657Z,0
2017-01-16T05:14:57.129Z,0
2017-01-16T05:16:10.592Z,0
2017-01-16T05:17:24.344Z,0
2017-01-16T05:18:37.885Z,0
2017-01-16T05:19:51.299Z,0
2017-01-16T05:21:04.770Z,0
2017-01-16T05:22:18.190Z,0
2017-01-16T05:23:32.015Z,0
2017-01-16T05:24:45.459Z,0
2017-01-16T05:25:58.896Z,0
2017-01-16T05:27:12.345Z,0
2017-01-16T05:28:25.763Z,0
2017-01-16T05:29:39.564Z,0
2017-01-16T05:30:53.028Z,0
2017-01-16T05:32:06.460Z,0
2017-01-16T05:33:20.284Z,0
2017-01-16T05:34:33.840Z,0
2017-01-16T05:35:47.572Z,0
2017-01-16T05:37:01.140Z,0
2017-01-16T05:38:14.564Z,0
2017-01-16T05:39:28.450Z,0
2017-01-16T05:40:41.874Z,0
2017-01-16T05:41:55.628Z,0
2017-01-16T05:43:09.175Z,0
2017-01-16T05:44:25.787Z,0
2017-01-16T05:45:39.781Z,0
2017-01-16T05:46:53.345Z,0
2017-01-16T05:48:07.107Z,0
2017-01-16T05:49:20.662Z,0
2017-01-16T05:50:34.287Z,0
2017-01-16T05:51:48.253Z,0
2017-01-16T05:53:01.669Z,0
2017-01-16T05:54:15.419Z,0
2017-01-16T05:55:29.364Z,0
2017-01-16T05:56:43.224Z,0
2017-01-16T05:57:56.631Z,0
2017-01-16T05:59:10.072Z,0
2017-01-16T06:00:23.943Z,0
2017-01-16T06:01:37.457Z,0
2017-01-16T06:02:51.018Z,0
2017-01-16T06:04:04.470Z,0
2017-01-16T06:05:17.919Z,0
2017-01-16T06:06:31.836Z,0
2017-01-16T06:07:45.288Z,0
2017-01-16T06:08:58.730Z,0
2017-01-16T06:10:12.158Z,0
2017-01-16T06:11:27.884Z,0
2017-01-16T06:12:41.606Z,0
2017-01-16T06:13:55.534Z,0
2017-01-16T06:15:08.944Z,0
2017-01-16T06:16:23.660Z,0
2017-01-16T06:17:37.097Z,0
2017-01-16T06:18:50.821Z,0
2017-01-16T06:20:04.263Z,0
2017-01-16T06:21:17.952Z,0
2017-01-16T06:22:33.195Z,0
2017-01-16T06:23:49.598Z,0
2017-01-16T06:25:05.689Z,0
2017-01-16T06:26:19.198Z,0
2017-01-16T06:27:33.943Z,0
2017-01-16T06:28:47.400Z,0
2017-01-16T06:30:00.833Z,0
2017-01-16T06:31:14.591Z,0
2017-01-16T06:32:29.296Z,0
2017-01-16T06:33:43.119Z,0
2017-01-16T06:34:56.551Z,0
2017-01-16T06:36:10.004Z,0
2017-01-16T06:37:23.730Z,0
2017-01-16T06:38:37.212Z,0
2017-01-16T06:39:50.732Z,0
2017-01-16T06:41:04.160Z,0
2017-01-16T06:42:17.969Z,0
2017-01-16T06:43:31.775Z,0
2017-01-16T06:44:45.636Z,0
2017-01-16T06:45:59.107Z,0
2017-01-16T06:47:12.623Z,0
2017-01-16T06:48:26.193Z,0
2017-01-16T06:49:40.299Z,0
2017-01-16T06:50:53.759Z,0
2017-01-16T06:52:07.198Z,0
2017-01-16T06:53:20.920Z,0
2017-01-16T06:54:34.441Z,0
2017-01-16T06:55:48.221Z,0
2017-01-16T06:57:01.657Z,0
2017-01-16T06:58:15.087Z,0
2017-01-16T06:59:28.672Z,0
2017-01-16T07:00:42.418Z,0
2017-01-16T07:01:56.106Z,0
2017-01-16T07:03:09.594Z,0
2017-01-16T07:04:23.155Z,0
2017-01-16T07:05:36.626Z,0
2017-01-16T07:06:50.057Z,0
2017-01-16T07:08:03.772Z,0
2017-01-16T07:09:17.242Z,0
2017-01-16T07:10:31.043Z,0
2017-01-16T07:11:44.464Z,0
2017-01-16T07:12:57.920Z,0
2017-01-16T07:14:11.678Z,0
2017-01-16T07:15:26.324Z,5
2017-01-16T07:16:40.219Z,5
2017-01-16T07:17:53.739Z,5
2017-01-16T07:19:07.654Z,5
2017-01-16T07:20:21.524Z,5
2017-01-16T07:21:34.942Z,5
2017-01-16T07:22:48.385Z,5
2017-01-16T07:24:01.804Z,5
2017-01-16T07:25:15.344Z,10
2017-01-16T07:26:29.733Z,10
2017-01-16T07:27:45.409Z,10
2017-01-16T07:28:58.928Z,10
2017-01-16T07:30:12.824Z,10
2017-01-16T07:31:26.384Z,10
2017-01-16T07:32:40.199Z,10
2017-01-16T07:33:53.629Z,10
2017-01-16T07:35:07.289Z,10
2017-01-16T07:36:20.876Z,10
2017-01-16T07:37:34.728Z,10
2017-01-16T07:38:48.450Z,10
2017-01-16T07:40:01.958Z,10
2017-01-16T07:41:15.546Z,10
2017-01-16T07:42:29.056Z,10
2017-01-16T07:43:42.487Z,10
2017-01-16T07:44:56.659Z,10
2017-01-16T07:46:10.279Z,10
2017-01-16T07:47:25.060Z,10
2017-01-16T07:48:38.652Z,15
2017-01-16T07:49:52.341Z,15
2017-01-16T07:51:06.267Z,15
2017-01-16T07:52:21.122Z,15
2017-01-16T07:53:34.635Z,15
2017-01-16T07:54:48.361Z,20
2017-01-16T07:56:02.181Z,20
2017-01-16T07:57:22.812Z,20
2017-01-16T07:58:36.388Z,25
2017-01-16T07:59:50.104Z,25
2017-01-16T08:01:03.715Z,25
2017-01-16T08:02:17.292Z,25
2017-01-16T08:03:31.936Z,25
2017-01-16T08:04:45.382Z,25
2017-01-16T08:05:58.832Z,25
2017-01-16T08:07:12.290Z,30
2017-01-16T08:08:25.818Z,30
2017-01-16T08:09:39.903Z,30
2017-01-16T08:10:53.432Z,30
2017-01-16T08:12:06.979Z,35
2017-01-16T08:13:20.718Z,35
2017-01-16T08:14:34.310Z,40
2017-01-16T08:15:48.035Z,40
2017-01-16T08:17:01.511Z,45
2017-01-16T08:18:15.146Z,45
2017-01-16T08:19:28.678Z,50
2017-01-16T08:20:42.819Z,55
2017-01-16T08:21:56.628Z,55
2017-01-16T08:23:10.204Z,55
2017-01-16T08:24:23.795Z,55
2017-01-16T08:25:37.324Z,55
2017-01-16T08:26:50.871Z,60
2017-01-16T08:28:04.643Z,55
2017-01-16T08:29:18.223Z,55
2017-01-16T08:30:31.917Z,60
2017-01-16T08:31:45.531Z,55
2017-01-16T08:32:59.074Z,55
2017-01-16T08:34:13.152Z,60
2017-01-16T08:35:26.769Z,55
2017-01-16T08:36:40.260Z,55
2017-01-16T08:37:53.807Z,60
2017-01-16T08:39:07.378Z,65
2017-01-16T08:40:21.375Z,65
2017-01-16T08:41:35.014Z,70
2017-01-16T08:42:48.653Z,70
2017-01-16T08:44:04.367Z,70
2017-01-16T08:45:18.074Z,75
2017-01-16T08:46:31.860Z,75
2017-01-16T08:47:45.414Z,70
2017-01-16T08:48:59.548Z,70
2017-01-16T08:50:13.270Z,75
2017-01-16T08:51:26.797Z,75
2017-01-16T08:52:40.533Z,75
2017-01-16T08:53:54.112Z,75
2017-01-16T08:55:07.761Z,75
2017-01-16T08:56:21.262Z,80
2017-01-16T08:57:34.700Z,80
2017-01-16T08:58:48.420Z,85
2017-01-16T09:00:01.854Z,90
2017-01-16T09:01:15.410Z,90
2017-01-16T09:02:28.812Z,85
2017-01-16T09:03:42.292Z,85
2017-01-16T09:04:56.016Z,85
2017-01-16T09:06:10.778Z,85
2017-01-16T09:07:24.619Z,85
2017-01-16T09:08:38.102Z,85
2017-01-16T09:09:51.628Z,85
2017-01-16T09:11:05.135Z,85
2017-01-16T09:12:19.972Z,85
2017-01-16T09:13:33.446Z,85
2017-01-16T09:14:46.987Z,85
2017-01-16T09:16:00.544Z,85
2017-01-16T09:17:14.587Z,85
2017-01-16T09:18:28.193Z,85
2017-01-16T09:19:42.068Z,85
2017-01-16T09:20:55.578Z,85
2017-01-16T09:22:09.858Z,85
2017-01-16T09:23:23.617Z,85
2017-01-16T09:24:37.045Z,90
2017-01-16T09:25:50.481Z,90
2017-01-16T09:27:04.060Z,90
2017-01-16T09:28:17.706Z,90
2017-01-16T09:29:31.422Z,90
2017-01-16T09:30:45.106Z,90
2017-01-16T09:31:58.651Z,90
2017-01-16T09:33:12.187Z,90
2017-01-16T09:34:26.283Z,95
2017-01-16T09:35:41.033Z,95
2017-01-16T09:36:54.539Z,95
2017-01-16T09:38:09.884Z,95
2017-01-16T09:39:23.352Z,100
2017-01-16T09:40:37.290Z,95
2017-01-16T09:41:51.007Z,95
2017-01-16T09:43:04.548Z,95
2017-01-16T09:44:18.001Z,95
2017-01-16T09:45:31.867Z,95
2017-01-16T09:46:45.291Z,95
2017-01-16T09:47:59.068Z,95
2017-01-16T09:49:12.600Z,95
2017-01-16T09:50:26.147Z,95
2017-01-16T09:51:39.620Z,95
2017-01-16T09:52:53.047Z,95
2017-01-16T09:54:08.530Z,95
2017-01-16T09:55:22.065Z,95
2017-01-16T09:56:35.509Z,95
2017-01-16T09:57:48.943Z,95
2017-01-16T09:59:02.438Z,95
2017-01-16T10:00:18.377Z,95
2017-01-16T10:01:31.860Z,95
2017-01-16T10:02:45.332Z,100
2017-01-16T10:03:58.782Z,100
2017-01-16T10:05:12.327Z,100
2017-01-16T10:06:26.025Z,100
2017-01-16T10:07:39.516Z,100
2017-01-16T10:08:52.963Z,100
2017-01-16T10:10:06.946Z,100
2017-01-16T10:11:20.816Z,100
2017-01-16T10:12:34.548Z,100
2017-01-16T10:13:48.066Z,100
2017-01-16T10:15:01.554Z,100
2017-01-16T10:16:15.114Z,100
2017-01-16T10:17:29.754Z,100
2017-01-16T10:18:43.922Z,100
2017-01-16T10:19:57.536Z,100
2017-01-16T10:21:11.122Z,100
2017-01-16T10:22:24.554Z,100
2017-01-16T10:23:38.027Z,100
2017-01-16T10:24:52.154Z,100
2017-01-16T10:26:06.969Z,100
2017-01-16T10:27:20.821Z,100
2017-01-16T10:28:34.268Z,100
2017-01-16T10:29:47.707Z,100
2017-01-16T10:31:01.471Z,100
2017-01-16T10:32:16.588Z,100
2017-01-16T10:33:30.090Z,100
2017-01-16T10:34:43.569Z,100
2017-01-16T10:35:57.033Z,100
2017-01-16T10:37:10.893Z,100
2017-01-16T10:38:24.366Z,105
2017-01-16T10:39:38.066Z,105
2017-01-16T10:40:51.497Z,105
2017-01-16T10:42:05.061Z,105
2017-01-16T10:43:18.791Z,105
2017-01-16T10:44:32.247Z,105
2017-01-16T10:45:45.705Z,105
2017-01-16T10:46:59.600Z,105
2017-01-16T10:48:13.097Z,105
2017-01-16T10:49:27.233Z,105
2017-01-16T10:50:41.081Z,105
2017-01-16T10:51:54.530Z,105
2017-01-16T10:53:08.069Z,105
2017-01-16T10:54:21.902Z,105
2017-01-16T10:55:35.587Z,105
2017-01-16T10:56:49.057Z,105
2017-01-16T10:58:02.643Z,105
2017-01-16T10:59:16.091Z,105
2017-01-16T11:00:29.521Z,105
2017-01-16T11:01:43.268Z,105
2017-01-16T11:02:56.692Z,110
2017-01-16T11:04:10.220Z,110
2017-01-16T11:05:23.738Z,115
2017-01-16T11:06:37.580Z,105
2017-01-16T11:07:51.300Z,110
2017-01-16T11:09:04.837Z,115
2017-01-16T11:10:18.782Z,110
2017-01-16T11:11:32.345Z,115
2017-01-16T11:12:46.221Z,115
2017-01-16T11:14:00.051Z,115
2017-01-16T11:15:13.693Z,120
2017-01-16T11:16:29.309Z,120
2017-01-16T11:17:43.012Z,140
2017-01-16T11:18:56.561Z,140
2017-01-16T11:20:10.277Z,120
2017-01-16T11:21:23.760Z,135
2017-01-16T11:22:37.164Z,130
2017-01-16T11:23:50.577Z,115
2017-01-16T11:25:04.127Z,115
2017-01-16T11:26:17.940Z,115
2017-01-16T11:27:31.455Z,115
2017-01-16T11:28:45.000Z,115
2017-01-16T11:29:58.540Z,110
2017-01-16T11:31:12.417Z,120
2017-01-16T11:32:26.196Z,125
2017-01-16T11:33:39.689Z,135
2017-01-16T11:34:53.628Z,130
2017-01-16T11:36:08.650Z,125
2017-01-16T11:37:22.099Z,120
2017-01-16T11:38:35.892Z,125
2017-01-16T11:39:49.378Z,115
2017-01-16T11:41:03.418Z,105
2017-01-16T11:42:16.913Z,110
2017-01-16T11:43:30.353Z,105
2017-01-16T11:44:44.232Z,120
2017-01-16T11:45:59.042Z,120
2017-01-16T11:47:12.953Z,110
2017-01-16T11:48:26.375Z,115
2017-01-16T11:49:40.238Z,125
2017-01-16T11:50:54.247Z,125
2017-01-16T11:52:07.713Z,120
2017-01-16T11:53:21.168Z,130
2017-01-16T11:54:34.697Z,115
2017-01-16T11:55:48.181Z,130
2017-01-16T11:57:02.011Z,125
2017-01-16T11:58:15.466Z,115
2017-01-16T11:59:29.396Z,120
2017-01-16T12:00:43.321Z,120
2017-01-16T12:01:57.450Z,115
2017-01-16T12:03:11.969Z,120
2017-01-16T12:04:25.450Z,120
2017-01-16T12:05:38.890Z,105
2017-01-16T12:06:52.451Z,110
2017-01-16T12:08:05.929Z,120
2017-01-16T12:09:19.760Z,115
2017-01-16T12:10:33.198Z,110
2017-01-16T12:11:47.076Z,110
2017-01-16T12:13:00.717Z,100
2017-01-16T12:14:14.174Z,105
2017-01-16T12:15:27.970Z,100
2017-01-16T12:16:41.839Z,105
2017-01-16T12:17:55.411Z,105
2017-01-16T12:19:09.268Z,105
2017-01-16T12:20:22.747Z,105
2017-01-16T12:21:36.911Z,105
2017-01-16T12:22:50.934Z,110
2017-01-16T12:24:04.714Z,110
2017-01-16T12:25:18.207Z,105
2017-01-16T12:26:31.657Z,105
2017-01-16T12:27:45.465Z,110
2017-01-16T12:28:59.026Z,100
2017-01-16T12:30:12.560Z,100
2017-01-16T12:31:26.473Z,100
2017-01-16T12:32:42.094Z,100
2017-01-16T12:33:55.973Z,95
2017-01-16T12:35:09.459Z,100
2017-01-16T12:36:22.919Z,110
2017-01-16T12:37:36.379Z,120
2017-01-16T12:38:49.877Z,125
2017-01-16T12:40:03.668Z,125
2017-01-16T12:41:17.185Z,125
2017-01-16T12:42:30.694Z,120
2017-01-16T12:43:44.172Z,110
2017-01-16T12:44:57.719Z,105
2017-01-16T12:46:11.447Z,105
2017-01-16T12:47:24.928Z,105
2017-01-16T12:48:38.385Z,100
2017-01-16T12:49:52.357Z,100
2017-01-16T12:51:05.791Z,100
2017-01-16T12:52:19.523Z,110
2017-01-16T12:53:32.986Z,110
2017-01-16T12:54:46.496Z,110
2017-01-16T12:56:00.073Z,110
2017-01-16T12:57:13.541Z,115
2017-01-16T12:58:27.274Z,115
2017-01-16T12:59:40.718Z,115
2017-01-16T13:00:54.267Z,115
2017-01-16T13:02:07.678Z,115
2017-01-16T13:03:21.553Z,115
2017-01-16T13:04:35.285Z,120
2017-01-16T13:05:49.336Z,120
2017-01-16T13:07:02.800Z,105
2017-01-16T13:08:16.298Z,100
2017-01-16T13:09:29.948Z,100
2017-01-16T13:10:43.508Z,100
2017-01-16T13:11:57.036Z,100
2017-01-16T13:13:10.532Z,95
2017-01-16T13:14:23.966Z,90
2017-01-16T13:15:37.552Z,95
2017-01-16T13:16:51.478Z,95
2017-01-16T13:18:04.968Z,95
2017-01-16T13:19:18.467Z,95
2017-01-16T13:20:31.943Z,90
2017-01-16T13:21:45.641Z,95
2017-01-16T13:22:59.386Z,95
2017-01-16T13:24:12.832Z,95
2017-01-16T13:25:26.751Z,95
2017-01-16T13:26:40.394Z,100
2017-01-16T13:27:53.950Z,100
2017-01-16T13:29:08.197Z,100
2017-01-16T13:30:21.642Z,100
2017-01-16T13:31:35.170Z,100
2017-01-16T13:32:49.961Z,100
2017-01-16T13:34:03.406Z,100
2017-01-16T13:35:17.619Z,100
2017-01-16T13:36:31.560Z,100
2017-01-16T13:37:45.935Z,100
2017-01-16T13:38:59.555Z,95
2017-01-16T13:40:13.463Z,90
2017-01-16T13:41:27.262Z,90
2017-01-16T13:42:41.758Z,90
2017-01-16T13:43:55.930Z,90
2017-01-16T13:45:09.453Z,85
2017-01-16T13:46:22.916Z,90
2017-01-16T13:47:36.797Z,90
2017-01-16T13:48:52.631Z,85
2017-01-16T13:50:06.193Z,80
2017-01-16T13:51:19.686Z,80
2017-01-16T13:52:33.179Z,75
2017-01-16T13:53:47.449Z,75
2017-01-16T13:55:01.531Z,75
2017-01-16T13:56:15.114Z,75
2017-01-16T13:57:28.699Z,80
2017-01-16T13:58:42.369Z,85
2017-01-16T13:59:56.721Z,85
2017-01-16T14:01:10.641Z,85
2017-01-16T14:02:24.159Z,85
2017-01-16T14:03:37.835Z,85
2017-01-16T14:04:51.288Z,80
2017-01-16T14:06:05.043Z,80
2017-01-16T14:07:18.500Z,80
2017-01-16T14:08:32.453Z,80
2017-01-16T14:09:46.150Z,80
2017-01-16T14:10:59.687Z,80
2017-01-16T14:12:13.514Z,80
2017-01-16T14:13:27.407Z,80
2017-01-16T14:14:41.149Z,80
2017-01-16T14:15:54.967Z,75
2017-01-16T14:17:08.465Z,75
2017-01-16T14:18:22.249Z,75
2017-01-16T14:19:35.781Z,75
2017-01-16T14:20:49.297Z,75
2017-01-16T14:22:02.824Z,75
2017-01-16T14:23:16.299Z,75
2017-01-16T14:24:30.437Z,70
2017-01-16T14:25:43.952Z,70
2017-01-16T14:26:57.668Z,70
2017-01-16T14:28:11.168Z,70
2017-01-16T14:29:24.719Z,70
2017-01-16T14:30:39.112Z,70
2017-01-16T14:31:53.106Z,70
2017-01-16T14:33:06.609Z,65
2017-01-16T14:34:20.108Z,65
2017-01-16T14:35:33.666Z,65
2017-01-16T14:36:48.690Z,65
2017-01-16T14:38:02.148Z,65
2017-01-16T14:39:15.614Z,65
2017-01-16T14:40:29.025Z,60
2017-01-16T14:41:42.972Z,60
2017-01-16T14:42:56.798Z,60
2017-01-16T14:44:10.725Z,60
2017-01-16T14:45:24.383Z,60
2017-01-16T14:46:39.568Z,60
2017-01-16T14:47:53.009Z,60
2017-01-16T14:49:06.778Z,55
2017-01-16T14:50:20.268Z,55
2017-01-16T14:51:33.826Z,55
2017-01-16T14:52:47.271Z,50
2017-01-16T14:54:00.730Z,50
2017-01-16T14:55:14.501Z,50
2017-01-16T14:56:27.990Z,50
2017-01-16T14:57:42.004Z,50
2017-01-16T14:58:55.711Z,50
2017-01-16T15:00:09.189Z,45
2017-01-16T15:01:23.125Z,50
2017-01-16T15:02:36.756Z,45
2017-01-16T15:03:50.196Z,45
2017-01-16T15:05:06.090Z,40
2017-01-16T15:06:19.630Z,40
2017-01-16T15:07:33.514Z,40
2017-01-16T15:08:47.026Z,40
2017-01-16T15:10:00.573Z,40
2017-01-16T15:11:14.056Z,35
2017-01-16T15:12:27.566Z,35
2017-01-16T15:13:43.016Z,35
2017-01-16T15:14:56.470Z,35
2017-01-16T15:16:10.357Z,30
2017-01-16T15:17:24.293Z,30
2017-01-16T15:18:38.972Z,30
2017-01-16T15:19:54.399Z,30
2017-01-16T15:21:07.883Z,25
2017-01-16T15:22:21.338Z,25
2017-01-16T15:23:34.959Z,25
2017-01-16T15:24:48.406Z,25
2017-01-16T15:26:02.126Z,25
2017-01-16T15:27:15.575Z,25
2017-01-16T15:28:29.042Z,20
2017-01-16T15:29:43.226Z,20
2017-01-16T15:30:57.087Z,20
2017-01-16T15:32:10.877Z,20
2017-01-16T15:33:24.353Z,15
2017-01-16T15:34:37.924Z,15
2017-01-16T15:35:51.457Z,15
2017-01-16T15:37:05.052Z,15
2017-01-16T15:38:18.810Z,15
2017-01-16T15:39:32.388Z,15
2017-01-16T15:40:45.874Z,10
2017-01-16T15:41:59.335Z,10
2017-01-16T15:43:12.786Z,10
2017-01-16T15:44:26.576Z,10
2017-01-16T15:45:55.348Z,10
2017-01-16T15:47:08.803Z,5
2017-01-16T15:48:22.299Z,5
2017-01-16T15:49:35.749Z,5
2017-01-16T15:50:49.973Z,5
2017-01-16T15:52:03.426Z,5
2017-01-16T15:53:16.897Z,5
2017-01-16T15:54:30.403Z,5
2017-01-16T15:55:43.954Z,5
2017-01-16T15:56:57.656Z,0
2017-01-16T15:58:11.144Z,0
2017-01-16T15:59:24.623Z,0
2017-01-16T16:00:38.109Z,0
2017-01-16T16:01:51.651Z,0
2017-01-16T16:03:05.399Z,0
2017-01-16T16:04:18.870Z,0
2017-01-16T16:05:32.370Z,0
2017-01-16T16:06:47.161Z,0
2017-01-16T16:08:00.663Z,0
2017-01-16T16:09:14.436Z,0
2017-01-16T16:10:27.911Z,0
2017-01-16T16:11:42.389Z,0
2017-01-16T16:12:56.004Z,0
2017-01-16T16:14:09.580Z,0
2017-01-16T16:15:30.385Z,0
2017-01-16T16:16:59.842Z,0
2017-01-16T16:18:24.356Z,0
2017-01-16T16:19:42.830Z,0
2017-01-16T16:21:08.488Z,0
2017-01-16T16:22:36.583Z,0
2017-01-16T16:23:59.906Z,0
2017-01-16T16:25:18.302Z,0
2017-01-16T16:26:32.084Z,0
2017-01-16T16:27:47.904Z,0
2017-01-16T16:29:01.378Z,0
2017-01-16T16:30:14.845Z,0
2017-01-16T16:31:28.703Z,0
2017-01-16T16:32:43.735Z,0
2017-01-16T16:33:57.193Z,0
2017-01-16T16:35:10.632Z,0
2017-01-16T16:36:24.198Z,0
2017-01-16T16:37:37.797Z,0
2017-01-16T16:38:51.582Z,0
2017-01-16T16:40:05.005Z,0
2017-01-16T16:41:18.489Z,0
2017-01-16T16:42:32.223Z,0
2017-01-16T16:43:45.896Z,0
2017-01-16T16:45:00.042Z,0
2017-01-16T16:46:13.691Z,0
2017-01-16T16:47:27.754Z,0
2017-01-16T16:48:41.307Z,0
2017-01-16T16:49:54.786Z,0
2017-01-16T16:51:08.546Z,0
2017-01-16T16:52:22.000Z,0
2017-01-16T16:53:35.549Z,0
2017-01-16T16:54:48.999Z,0
2017-01-16T16:56:02.530Z,0
2017-01-16T16:57:16.030Z,0
2017-01-16T16:58:29.550Z,0
2017-01-16T16:59:43.107Z,0
2017-01-16T17:00:56.880Z,0
2017-01-16T17:02:10.520Z,0
2017-01-16T17:03:25.104Z,0
2017-01-16T17:04:40.420Z,0
2017-01-16T17:05:54.272Z,0
2017-01-16T17:07:07.751Z,0
2017-01-16T17:08:21.224Z,0
2017-01-16T17:09:35.129Z,0
2017-01-16T17:10:49.117Z,0
2017-01-16T17:12:03.022Z,0
2017-01-16T17:13:16.534Z,0
2017-01-16T17:14:29.965Z,0
2017-01-16T17:15:44.246Z,0
2017-01-16T17:16:57.710Z,0
2017-01-16T17:18:11.182Z,0
2017-01-16T17:19:24.603Z,0
2017-01-16T17:20:39.313Z,0
2017-01-16T17:21:53.019Z,0
2017-01-16T17:23:06.477Z,0
2017-01-16T17:24:20.497Z,0
2017-01-16T17:25:34.054Z,0
2017-01-16T17:26:47.656Z,0
2017-01-16T17:28:01.810Z,0
2017-01-16T17:29:16.109Z,0
2017-01-16T17:30:29.575Z,0
2017-01-16T17:31:43.227Z,0
2017-01-16T17:32:57.096Z,0
2017-01-16T17:34:11.610Z,0
2017-01-16T17:35:25.045Z,0
2017-01-16T17:36:38.667Z,0
2017-01-16T17:37:52.612Z,0
2017-01-16T17:39:08.469Z,0
2017-01-16T17:43:56.707Z,0
2017-01-16T17:45:10.146Z,0
2017-01-16T17:46:24.003Z,0
2017-01-16T17:47:37.467Z,0
2017-01-16T17:48:50.996Z,0
2017-01-16T17:50:04.768Z,0
2017-01-16T17:51:18.216Z,0
2017-01-16T17:52:31.659Z,0
2017-01-16T17:53:45.212Z,0
2017-01-16T17:54:58.703Z,0